Cape Bruny, Australia
Current Conditions -  °F | °C
As of 9:20 AM on Sunday 26 Oct 2014 (Local Time) from YMHB Reporting Station
Rain Showers Rain Showers  
Wind Chill: 52°   Ceiling: 1800
Heat Index: 52°   Visibility: 6mi
Dew Point: 50°   Wind: 7mph
Humidity: 94%   Direction: 100°E
Pressure: 29.97"   Gusts: NA
Location:  43.49°S, 147.14°E
Report Text: YMHB 252220Z 10006KT 9999 VCSH FEW008 OVC018 11/10 Q1015
Loading
Personal Weather Stations






























Interactive Weather Map
Tropical Storm Tracking
New forecast layout! Learn more

10-Day Weather Forecast

Advertisements
Track Severe Weather on mobile